createdAt,value
2019-04-05T00:01:09.749Z,5.77
2019-04-05T00:03:38.132Z,5.87
2019-04-05T00:06:07.010Z,6.08
2019-04-05T00:08:35.400Z,5.93
2019-04-05T00:11:03.885Z,6.07
2019-04-05T00:13:34.135Z,6.02
2019-04-05T00:16:02.670Z,5.97
2019-04-05T00:18:31.044Z,5.97
2019-04-05T00:20:59.545Z,6.02
2019-04-05T00:23:27.938Z,6.00
2019-04-05T00:25:59.318Z,6.06
2019-04-05T00:28:27.696Z,6.01
2019-04-05T00:30:56.045Z,5.97
2019-04-05T00:33:24.526Z,5.96
2019-04-05T00:35:52.973Z,5.87
2019-04-05T00:38:21.321Z,5.93
2019-04-05T00:40:49.766Z,5.78
2019-04-05T00:43:18.114Z,5.82
2019-04-05T00:45:46.661Z,5.93
2019-04-05T00:48:14.999Z,5.50
2019-04-05T00:50:43.546Z,5.71
2019-04-05T00:53:11.961Z,5.73
2019-04-05T00:55:40.776Z,5.62
2019-04-05T00:58:09.192Z,5.33
2019-04-05T01:00:37.571Z,4.43
2019-04-05T01:03:05.983Z,5.00
2019-04-05T01:05:34.427Z,5.08
2019-04-05T01:08:03.399Z,5.43
2019-04-05T01:10:31.930Z,5.45
2019-04-05T01:13:00.279Z,5.54
2019-04-05T01:15:40.351Z,5.62
2019-04-05T01:17:59.226Z,5.69
2019-04-05T01:20:30.800Z,5.36
2019-04-05T01:23:00.716Z,5.53
2019-04-05T01:25:29.172Z,5.69
2019-04-05T01:27:57.692Z,5.57
2019-04-05T01:30:26.251Z,5.52
2019-04-05T01:32:54.669Z,5.67
2019-04-05T01:35:23.122Z,5.69
2019-04-05T01:37:52.111Z,5.74
2019-04-05T01:40:20.844Z,5.81
2019-04-05T01:42:49.339Z,5.79
2019-04-05T01:45:17.723Z,5.84
2019-04-05T01:47:46.181Z,5.79
2019-04-05T01:50:14.737Z,5.89
2019-04-05T01:52:43.210Z,5.83
2019-04-05T01:55:11.637Z,5.85
2019-04-05T01:57:40.084Z,5.87
2019-04-05T02:00:11.693Z,5.94
2019-04-05T02:02:40.320Z,5.87
2019-04-05T02:05:09.203Z,5.71
2019-04-05T02:07:38.022Z,5.60
2019-04-05T02:10:08.492Z,5.78
2019-04-05T02:12:37.310Z,5.76
2019-04-05T02:15:06.489Z,5.85
2019-04-05T02:17:36.111Z,5.91
2019-04-05T02:20:07.749Z,5.87
2019-04-05T02:22:36.195Z,5.88
2019-04-05T02:25:07.049Z,5.84
2019-04-05T02:27:35.497Z,5.98
2019-04-05T02:30:05.590Z,6.15
2019-04-05T02:32:34.046Z,6.16
2019-04-05T02:35:02.547Z,5.91
2019-04-05T02:37:30.988Z,5.66
2019-04-05T02:39:59.405Z,5.86
2019-04-05T02:42:28.523Z,5.95
2019-04-05T02:44:56.947Z,5.82
2019-04-05T02:47:25.495Z,6.07
2019-04-05T02:49:55.315Z,6.16
2019-04-05T02:52:23.961Z,6.21
2019-04-05T02:54:52.585Z,6.19
2019-04-05T02:57:21.026Z,6.14
2019-04-05T02:59:49.546Z,6.21
2019-04-05T03:02:17.997Z,6.28
2019-04-05T03:04:46.422Z,6.20
2019-04-05T03:07:14.972Z,6.17
2019-04-05T03:09:43.884Z,6.16
2019-04-05T03:12:12.332Z,6.23
2019-04-05T03:14:40.759Z,6.14
2019-04-05T03:17:09.900Z,6.16
2019-04-05T03:19:38.914Z,5.96
2019-04-05T03:22:09.605Z,6.28
2019-04-05T03:24:39.764Z,6.18
2019-04-05T03:27:10.176Z,6.24
2019-04-05T03:29:38.594Z,6.23
2019-04-05T03:32:07.039Z,6.17
2019-04-05T03:34:36.265Z,6.02
2019-04-05T03:37:05.036Z,6.19
2019-04-05T03:39:34.253Z,6.13
2019-04-05T03:42:03.343Z,6.15
2019-04-05T03:44:32.060Z,6.11
2019-04-05T03:47:00.473Z,6.23
2019-04-05T03:49:30.123Z,6.18
2019-04-05T03:51:58.614Z,6.07
2019-04-05T03:54:27.059Z,5.83
2019-04-05T03:56:55.573Z,5.80
2019-04-05T03:59:24.314Z,6.07
2019-04-05T04:01:52.964Z,6.08
2019-04-05T04:04:21.380Z,6.18
2019-04-05T04:06:49.995Z,6.23
2019-04-05T04:09:18.710Z,6.27
2019-04-05T04:11:47.310Z,6.31
2019-04-05T04:14:15.770Z,6.17
2019-04-05T04:16:44.473Z,6.29
2019-04-05T04:19:13.554Z,6.03
2019-04-05T04:21:48.127Z,6.22
2019-04-05T04:24:16.577Z,6.04
2019-04-05T04:26:44.985Z,6.02
2019-04-05T04:29:13.945Z,6.01
2019-04-05T04:31:42.362Z,6.22
2019-04-05T04:34:11.360Z,6.39
2019-04-05T04:36:39.781Z,6.19
2019-04-05T04:39:08.297Z,6.19
2019-04-05T04:41:36.727Z,6.15
2019-04-05T04:44:05.465Z,6.13
2019-04-05T04:46:34.079Z,6.14
2019-04-05T04:49:02.535Z,6.38
2019-04-05T04:51:31.392Z,6.23
2019-04-05T04:54:00.042Z,6.11
2019-04-05T04:56:28.471Z,5.87
2019-04-05T04:58:56.930Z,5.41
2019-04-05T05:01:25.748Z,5.74
2019-04-05T05:03:56.170Z,5.32
2019-04-05T05:06:24.621Z,5.36
2019-04-05T05:08:53.068Z,5.63
2019-04-05T05:11:21.587Z,5.34
2019-04-05T05:13:50.503Z,5.59
2019-04-05T05:16:19.652Z,5.61
2019-04-05T05:18:48.408Z,5.34
2019-04-05T05:21:16.867Z,4.99
2019-04-05T05:23:45.513Z,5.03
2019-04-05T05:26:14.135Z,5.36
2019-04-05T05:28:42.561Z,5.31
2019-04-05T05:31:11.156Z,5.38
2019-04-05T05:33:39.759Z,5.46
2019-04-05T05:36:10.453Z,4.91
2019-04-05T05:38:38.538Z,5.12
2019-04-05T05:41:07.075Z,5.55
2019-04-05T05:43:35.500Z,5.29
2019-04-05T05:46:03.956Z,5.42
2019-04-05T05:48:32.467Z,5.59
2019-04-05T05:51:01.226Z,5.88
2019-04-05T05:53:29.580Z,5.43
2019-04-05T05:55:57.967Z,5.58
2019-04-05T05:58:26.527Z,5.14
2019-04-05T06:00:55.052Z,5.53
2019-04-05T06:03:23.479Z,5.79
2019-04-05T06:08:21.948Z,5.68
2019-04-05T06:10:50.329Z,5.68
2019-04-05T06:13:18.750Z,5.14
2019-04-05T06:15:47.201Z,5.52
2019-04-05T06:18:15.627Z,5.79
2019-04-05T06:20:44.082Z,5.70
2019-04-05T06:23:12.436Z,5.80
2019-04-05T06:25:40.808Z,5.98
2019-04-05T06:28:09.156Z,5.75
2019-04-05T06:30:37.541Z,5.87
2019-04-05T06:33:05.897Z,5.60
2019-04-05T06:35:34.305Z,5.69
2019-04-05T06:38:02.646Z,5.93
2019-04-05T06:40:40.847Z,5.80
2019-04-05T06:43:01.107Z,5.73
2019-04-05T06:45:29.460Z,5.81
2019-04-05T06:47:57.844Z,6.15
2019-04-05T06:50:26.199Z,6.15
2019-04-05T06:52:54.584Z,6.02
2019-04-05T06:55:23.010Z,6.18
2019-04-05T06:57:51.393Z,6.36
2019-04-05T07:00:23.085Z,6.42
2019-04-05T07:02:51.467Z,6.48
2019-04-05T07:05:21.087Z,6.62
2019-04-05T07:07:49.634Z,6.49
2019-04-05T07:10:17.990Z,6.52
2019-04-05T07:12:46.430Z,6.13
2019-04-05T07:15:14.874Z,5.84
2019-04-05T07:17:43.405Z,6.33
2019-04-05T07:20:11.962Z,6.56
2019-04-05T07:22:40.411Z,6.57
2019-04-05T07:25:08.899Z,6.69
2019-04-05T07:27:37.284Z,6.82
2019-04-05T07:30:07.775Z,6.82
2019-04-05T07:32:36.159Z,6.91
2019-04-05T07:35:05.745Z,6.91
2019-04-05T07:37:34.191Z,7.07
2019-04-05T07:40:02.546Z,7.15
2019-04-05T07:42:30.994Z,7.29
2019-04-05T07:44:59.350Z,7.22
2019-04-05T07:47:27.727Z,7.08
2019-04-05T07:49:56.074Z,6.94
2019-04-05T07:52:24.453Z,7.27
2019-04-05T07:54:53.247Z,7.37
2019-04-05T07:57:21.626Z,7.19
2019-04-05T07:59:50.051Z,7.45
2019-04-05T08:02:18.438Z,7.54
2019-04-05T08:04:46.853Z,7.38
2019-04-05T08:07:15.772Z,7.51
2019-04-05T08:09:44.690Z,7.39
2019-04-05T08:12:13.504Z,7.33
2019-04-05T08:14:42.555Z,7.13
2019-04-05T08:17:10.967Z,7.11
2019-04-05T08:19:39.340Z,7.25
2019-04-05T08:22:07.760Z,7.24
2019-04-05T08:24:36.278Z,7.83
2019-04-05T08:27:04.769Z,8.02
2019-04-05T08:29:33.159Z,8.09
2019-04-05T08:32:13.645Z,8.22
2019-04-05T08:34:31.606Z,8.24
2019-04-05T08:37:00.023Z,8.20
2019-04-05T08:39:28.475Z,7.76
2019-04-05T08:41:56.821Z,7.85
2019-04-05T08:44:25.269Z,8.05
2019-04-05T08:46:53.684Z,7.29
2019-04-05T08:49:22.066Z,7.78
2019-04-05T08:51:50.568Z,8.31
2019-04-05T08:54:31.590Z,8.32
2019-04-05T08:56:49.088Z,8.25
2019-04-05T08:59:17.468Z,8.18
2019-04-05T09:01:45.817Z,8.17
2019-04-05T09:04:14.279Z,8.08
2019-04-05T09:06:42.618Z,8.04
2019-04-05T09:09:11.000Z,7.98
2019-04-05T09:11:39.360Z,7.87
2019-04-05T09:14:07.743Z,8.02
2019-04-05T09:16:36.087Z,7.98
2019-04-05T09:19:04.603Z,7.95
2019-04-05T09:21:32.953Z,7.93
2019-04-05T09:24:01.574Z,8.02
2019-04-05T09:26:29.926Z,7.87
2019-04-05T09:28:58.375Z,8.07
2019-04-05T09:31:26.720Z,8.19
2019-04-05T09:33:55.099Z,8.21
2019-04-05T09:36:23.456Z,8.22
2019-04-05T09:38:51.835Z,8.31
2019-04-05T09:41:20.254Z,8.28
2019-04-05T09:43:48.600Z,8.39
2019-04-05T09:46:16.990Z,8.42
2019-04-05T09:48:45.731Z,8.40
2019-04-05T09:51:14.113Z,8.37
2019-04-05T09:53:42.529Z,8.35
2019-04-05T09:56:10.913Z,8.30
2019-04-05T09:58:39.346Z,8.54
2019-04-05T10:01:07.725Z,8.48
2019-04-05T10:03:36.071Z,8.59
2019-04-05T10:06:04.686Z,8.71
2019-04-05T10:08:33.105Z,8.80
2019-04-05T10:11:01.755Z,8.87
2019-04-05T10:13:30.104Z,8.78
2019-04-05T10:15:58.566Z,8.83
2019-04-05T10:18:26.907Z,8.96
2019-04-05T10:20:55.298Z,8.79
2019-04-05T10:23:23.636Z,8.79
2019-04-05T10:25:52.089Z,8.96
2019-04-05T10:28:20.441Z,8.97
2019-04-05T10:30:51.737Z,9.10
2019-04-05T10:33:19.209Z,9.09
2019-04-05T10:35:47.661Z,9.32
2019-04-05T10:38:15.987Z,9.48
2019-04-05T10:40:44.609Z,9.69
2019-04-05T10:43:13.025Z,9.95
2019-04-05T10:45:41.410Z,10.11
2019-04-05T10:48:09.833Z,10.22
2019-04-05T10:50:38.284Z,10.37
2019-04-05T10:53:06.639Z,10.35
2019-04-05T10:55:35.023Z,10.48
2019-04-05T10:58:03.642Z,10.54
2019-04-05T11:00:32.161Z,10.59
2019-04-05T11:03:00.590Z,10.63
2019-04-05T11:05:29.063Z,10.50
2019-04-05T11:07:57.416Z,10.38
2019-04-05T11:10:25.768Z,10.32
2019-04-05T11:12:54.225Z,10.41
2019-04-05T11:15:22.644Z,10.49
2019-04-05T11:17:51.029Z,10.51
2019-04-05T11:20:21.770Z,10.60
2019-04-05T11:22:50.909Z,10.45
2019-04-05T11:25:20.941Z,10.47
2019-04-05T11:27:49.525Z,10.38
2019-04-05T11:30:21.050Z,10.22
2019-04-05T11:32:49.509Z,10.21
2019-04-05T11:35:17.861Z,10.24
2019-04-05T11:37:49.931Z,10.26
2019-04-05T11:40:16.468Z,10.36
2019-04-05T11:42:46.396Z,10.56
2019-04-05T11:45:16.290Z,10.77
2019-04-05T11:47:44.741Z,11.01
2019-04-05T11:50:14.783Z,11.06
2019-04-05T11:52:43.242Z,11.13
2019-04-05T11:55:11.730Z,11.14
2019-04-05T11:57:41.483Z,11.22
2019-04-05T12:00:25.118Z,11.22
2019-04-05T12:02:55.210Z,11.34
2019-04-05T12:05:26.972Z,11.22
2019-04-05T12:07:58.468Z,11.19
2019-04-05T12:10:23.858Z,11.20
2019-04-05T12:12:52.343Z,11.22
2019-04-05T12:15:20.793Z,11.38
2019-04-05T12:17:49.318Z,11.54
2019-04-05T12:20:17.842Z,11.57
2019-04-05T12:22:46.243Z,11.56
2019-04-05T12:25:14.763Z,11.49
2019-04-05T12:27:43.338Z,11.56
2019-04-05T12:30:13.539Z,11.77
2019-04-05T12:32:42.020Z,11.86
2019-04-05T12:35:10.539Z,11.95
2019-04-05T12:37:49.655Z,11.98
2019-04-05T12:40:10.139Z,11.96
2019-04-05T12:42:42.695Z,11.97
2019-04-05T12:45:09.944Z,11.99
2019-04-05T12:47:38.383Z,12.07
2019-04-05T12:50:08.368Z,12.16
2019-04-05T12:52:36.996Z,12.23
2019-04-05T12:55:07.193Z,12.23
2019-04-05T12:57:35.619Z,12.26
2019-04-05T13:00:13.649Z,12.08
2019-04-05T13:02:42.226Z,11.89
2019-04-05T13:05:11.023Z,11.73
2019-04-05T13:07:39.545Z,11.65
2019-04-05T13:10:08.096Z,11.58
2019-04-05T13:12:36.676Z,11.48
2019-04-05T13:15:13.783Z,11.38
2019-04-05T13:17:36.291Z,11.45
2019-04-05T13:20:06.694Z,11.46
2019-04-05T13:22:35.145Z,11.48
2019-04-05T13:25:06.049Z,11.41
2019-04-05T13:27:34.882Z,11.35
2019-04-05T13:30:04.541Z,11.20
2019-04-05T13:32:32.883Z,11.15
2019-04-05T13:35:01.395Z,11.08
2019-04-05T13:37:30.781Z,11.02
2019-04-05T13:40:00.189Z,10.96
2019-04-05T13:42:31.390Z,10.93
2019-04-05T13:45:00.266Z,10.94
2019-04-05T13:47:28.811Z,10.92
2019-04-05T13:49:57.426Z,10.93
2019-04-05T13:52:25.935Z,11.05
2019-04-05T13:54:54.470Z,11.18
2019-04-05T13:57:23.008Z,11.35
2019-04-05T13:59:51.366Z,11.40
2019-04-05T14:02:21.223Z,11.49
2019-04-05T14:04:53.587Z,11.58
2019-04-05T14:07:23.456Z,11.57
2019-04-05T14:09:50.762Z,11.44
2019-04-05T14:12:19.107Z,11.31
2019-04-05T14:14:50.984Z,11.37
2019-04-05T14:17:17.560Z,11.33
2019-04-05T14:19:46.776Z,11.16
2019-04-05T14:22:16.003Z,11.01
2019-04-05T14:24:44.383Z,10.91
2019-04-05T14:27:12.889Z,10.84
2019-04-05T14:29:41.509Z,10.84
2019-04-05T14:32:20.476Z,10.86
2019-04-05T14:34:40.530Z,10.81
2019-04-05T14:37:09.086Z,10.82
2019-04-05T14:39:37.604Z,10.86
2019-04-05T14:42:09.939Z,10.86
2019-04-05T14:44:36.518Z,10.82
2019-04-05T14:47:05.094Z,10.84
2019-04-05T14:49:33.740Z,10.82
2019-04-05T14:52:02.384Z,10.83
2019-04-05T14:54:30.929Z,10.88
2019-04-05T14:57:02.378Z,10.89
2019-04-05T14:59:32.594Z,10.86
2019-04-05T15:01:59.989Z,10.82
2019-04-05T15:04:28.524Z,10.81
2019-04-05T15:06:57.171Z,10.76
2019-04-05T15:09:25.843Z,10.71
2019-04-05T15:11:54.471Z,10.71
2019-04-05T15:14:23.147Z,10.74
2019-04-05T15:16:51.653Z,10.68
2019-04-05T15:19:20.203Z,10.68
2019-04-05T15:21:48.684Z,10.73
2019-04-05T15:24:17.226Z,10.69
2019-04-05T15:26:45.845Z,10.61
2019-04-05T15:29:14.173Z,10.63
2019-04-05T15:31:42.661Z,10.58
2019-04-05T15:34:10.987Z,10.61
2019-04-05T15:36:39.377Z,10.60
2019-04-05T15:39:09.141Z,10.56
2019-04-05T15:41:37.597Z,10.58
2019-04-05T15:44:05.956Z,10.58
2019-04-05T15:46:34.396Z,10.52
2019-04-05T15:49:02.755Z,10.50
2019-04-05T15:51:31.135Z,10.55
2019-04-05T15:54:01.515Z,10.50
2019-04-05T15:56:33.357Z,10.49
2019-04-05T15:59:03.488Z,10.47
2019-04-05T16:01:29.934Z,10.42
2019-04-05T16:03:58.372Z,10.41
2019-04-05T16:06:26.901Z,10.39
2019-04-05T16:08:55.315Z,10.37
2019-04-05T16:11:23.705Z,10.31
2019-04-05T16:13:52.126Z,10.32
2019-04-05T16:16:20.524Z,10.29
2019-04-05T16:18:48.873Z,10.29
2019-04-05T16:21:17.227Z,10.27
2019-04-05T16:23:45.620Z,10.19
2019-04-05T16:26:14.044Z,10.12
2019-04-05T16:28:42.422Z,10.10
2019-04-05T16:31:10.767Z,10.13
2019-04-05T16:33:39.151Z,10.16
2019-04-05T16:36:07.572Z,10.15
2019-04-05T16:38:36.023Z,10.07
2019-04-05T16:41:04.444Z,10.12
2019-04-05T16:43:32.825Z,10.13
2019-04-05T16:46:01.166Z,10.11
2019-04-05T16:48:29.555Z,10.10
2019-04-05T16:50:57.911Z,10.10
2019-04-05T16:53:26.293Z,9.94
2019-04-05T16:55:54.645Z,10.02
2019-04-05T16:58:23.032Z,9.99
2019-04-05T17:00:51.372Z,9.98
2019-04-05T17:03:19.832Z,9.95
2019-04-05T17:05:48.162Z,9.93
2019-04-05T17:08:16.537Z,9.90
2019-04-05T17:10:44.951Z,9.88
2019-04-05T17:13:13.339Z,9.88
2019-04-05T17:15:41.758Z,9.85
2019-04-05T17:18:10.135Z,9.75
2019-04-05T17:20:38.552Z,9.83
2019-04-05T17:23:07.006Z,9.80
2019-04-05T17:25:35.351Z,9.80
2019-04-05T17:28:03.877Z,9.72
2019-04-05T17:30:32.234Z,9.65
2019-04-05T17:33:00.580Z,9.69
2019-04-05T17:35:28.965Z,9.70
2019-04-05T17:37:57.319Z,9.59
2019-04-05T17:40:25.767Z,9.62
2019-04-05T17:42:54.113Z,9.58
2019-04-05T17:45:22.564Z,9.38
2019-04-05T17:47:50.914Z,9.53
2019-04-05T17:50:30.826Z,9.53
2019-04-05T17:53:11.221Z,9.57
2019-04-05T17:55:29.334Z,9.60
2019-04-05T17:57:58.750Z,9.57
2019-04-05T18:00:27.196Z,9.51
2019-04-05T18:02:55.625Z,9.56
2019-04-05T18:05:23.994Z,9.56
2019-04-05T18:07:52.430Z,9.55
2019-04-05T18:10:20.810Z,9.30
2019-04-05T18:12:49.394Z,9.45
2019-04-05T18:15:17.784Z,9.50
2019-04-05T18:17:46.130Z,9.49
2019-04-05T18:20:14.589Z,9.25
2019-04-05T18:22:42.934Z,9.35
2019-04-05T18:25:14.107Z,9.33
2019-04-05T18:27:41.464Z,9.08
2019-04-05T18:30:10.075Z,9.24
2019-04-05T18:32:38.490Z,9.30
2019-04-05T18:35:07.402Z,9.32
2019-04-05T18:37:35.822Z,9.38
2019-04-05T18:40:06.548Z,9.28
2019-04-05T18:42:34.894Z,9.21
2019-04-05T18:45:03.814Z,9.33
2019-04-05T18:47:32.163Z,9.32
2019-04-05T18:50:03.061Z,9.25
2019-04-05T18:52:31.221Z,9.25
2019-04-05T18:55:00.194Z,9.28
2019-04-05T18:57:28.541Z,9.20
2019-04-05T18:59:56.928Z,9.14
2019-04-05T19:02:25.331Z,9.20
2019-04-05T19:04:53.677Z,9.20
2019-04-05T19:07:22.437Z,9.17
2019-04-05T19:09:50.868Z,9.20
2019-04-05T19:12:19.256Z,9.20
2019-04-05T19:14:47.605Z,9.14
2019-04-05T19:17:23.753Z,9.19
2019-04-05T19:19:46.668Z,9.18
2019-04-05T19:22:15.018Z,9.18
2019-04-05T19:24:43.370Z,9.16
2019-04-05T19:27:11.819Z,9.18
2019-04-05T19:29:40.242Z,9.17
2019-04-05T19:49:39.241Z,9.15
2019-04-05T19:52:07.692Z,9.16
2019-04-05T19:54:39.490Z,9.18
2019-04-05T19:57:07.958Z,9.18
2019-04-05T19:59:36.309Z,9.12
2019-04-05T20:02:04.835Z,9.11
2019-04-05T20:04:33.258Z,9.15
2019-04-05T20:07:01.637Z,9.09
2019-04-05T20:09:30.008Z,9.14
2019-04-05T20:11:58.391Z,9.12
2019-04-05T20:14:26.740Z,9.18
2019-04-05T20:16:55.118Z,9.16
2019-04-05T20:19:23.469Z,9.10
2019-04-05T20:21:52.325Z,9.09
2019-04-05T20:24:20.684Z,9.12
2019-04-05T20:26:49.073Z,8.94
2019-04-05T20:29:18.209Z,9.06
2019-04-05T20:31:46.703Z,9.10
2019-04-05T20:34:15.063Z,9.12
2019-04-05T20:36:43.416Z,9.12
2019-04-05T20:39:11.799Z,9.11
2019-04-05T20:41:40.149Z,9.09
2019-04-05T20:44:10.330Z,9.05
2019-04-05T20:46:38.693Z,9.08
2019-04-05T20:49:07.075Z,9.04
2019-04-05T20:51:35.427Z,9.06
2019-04-05T20:54:03.880Z,9.04
2019-04-05T20:56:32.233Z,9.10
2019-04-05T20:59:00.773Z,9.01
2019-04-05T21:01:29.291Z,9.05
2019-04-05T21:03:57.932Z,9.04
2019-04-05T21:06:26.301Z,9.07
2019-04-05T21:08:54.681Z,9.02
2019-04-05T21:11:24.330Z,9.02
2019-04-05T21:13:53.989Z,9.08
2019-04-05T21:16:22.721Z,9.09
2019-04-05T21:18:51.382Z,9.14
2019-04-05T21:21:24.067Z,9.12
2019-04-05T21:23:53.476Z,9.09
2019-04-05T21:26:22.326Z,9.04
2019-04-05T21:28:50.772Z,8.87
2019-04-05T21:31:20.840Z,9.04
2019-04-05T21:33:49.236Z,9.06
2019-04-05T21:36:18.994Z,9.05
2019-04-05T21:38:47.384Z,9.05
2019-04-05T21:41:17.729Z,9.03
2019-04-05T21:43:46.192Z,8.97
2019-04-05T21:46:14.620Z,9.03
2019-04-05T21:48:43.063Z,8.94
2019-04-05T21:51:11.421Z,8.92
2019-04-05T21:53:39.807Z,8.98
2019-04-05T21:56:08.158Z,9.05
2019-04-05T21:58:36.877Z,9.12
2019-04-05T22:01:07.305Z,9.14
2019-04-05T22:03:35.920Z,9.06
2019-04-05T22:06:04.717Z,8.98
2019-04-05T22:08:34.639Z,8.94
2019-04-05T22:11:03.267Z,9.03
2019-04-05T22:13:31.890Z,8.99
2019-04-05T22:16:00.792Z,9.05
2019-04-05T22:18:30.040Z,9.07
2019-04-05T22:20:59.529Z,9.06
2019-04-05T22:23:31.132Z,9.04
2019-04-05T22:26:00.754Z,9.04
2019-04-05T22:28:30.042Z,8.98
2019-04-05T22:30:58.945Z,8.98
2019-04-05T22:33:28.433Z,9.03
2019-04-05T22:35:56.887Z,9.04
2019-04-05T22:38:27.079Z,9.01
2019-04-05T22:40:55.613Z,8.94
2019-04-05T22:43:24.027Z,8.91
2019-04-05T22:45:52.848Z,8.90
2019-04-05T22:48:21.813Z,8.99
2019-04-05T22:50:50.526Z,8.98
2019-04-05T22:53:19.083Z,8.99
2019-04-05T22:55:47.788Z,8.95
2019-04-05T22:58:17.974Z,8.88
2019-04-05T23:00:46.433Z,8.95
2019-04-05T23:03:14.857Z,8.94
2019-04-05T23:05:43.692Z,8.89
2019-04-05T23:08:12.366Z,8.91
2019-04-05T23:10:43.345Z,8.85
2019-04-05T23:13:11.993Z,8.87
2019-04-05T23:15:42.507Z,8.87
2019-04-05T23:18:11.111Z,8.70
2019-04-05T23:20:39.797Z,8.72
2019-04-05T23:23:09.993Z,8.83
2019-04-05T23:25:38.776Z,8.82
2019-04-05T23:28:07.446Z,8.81
2019-04-05T23:30:36.070Z,8.77
2019-04-05T23:33:04.494Z,8.65
2019-04-05T23:35:33.195Z,8.61
2019-04-05T23:38:01.719Z,8.50
2019-04-05T23:40:31.048Z,8.53
2019-04-05T23:42:59.942Z,8.51
2019-04-05T23:45:28.985Z,8.45
2019-04-05T23:47:57.404Z,8.35
2019-04-05T23:50:26.158Z,8.26
2019-04-05T23:52:54.474Z,8.30
2019-04-05T23:55:32.834Z,8.27
2019-04-05T23:57:53.199Z,8.14
